Date,TemperatureHighF,TemperatureAvgF,TemperatureLowF,DewpointHighF,DewpointAvgF,DewpointLowF,HumidityHigh,HumidityAvg,HumidityLow,PressureMaxIn,PressureMinIn,WindSpeedMaxMPH,WindSpeedAvgMPH,GustSpeedMaxMPH,PrecipitationSumIn
2013-5-1,80,67,53,-100,-100,-100,0,0,100,0.00,40.00,0,-999,0,0.00
2013-5-2,70,62,45,-100,-100,-100,0,0,100,0.00,40.00,0,-999,0,0.00
2013-5-3,64,50,40,-100,-100,-100,0,0,100,0.00,40.00,0,-999,0,0.00
2013-5-4,62,57,53,-100,-100,-100,0,0,100,0.00,40.00,0,-999,0,0.00
2013-5-5,70,58,50,-100,-100,-100,0,0,100,0.00,40.00,0,-999,0,0.00
2013-5-6,70,64,49,-100,-100,-100,0,0,100,0.00,40.00,0,-999,0,0.00
2013-5-7,79,64,50,-100,-100,-100,0,0,100,0.00,40.00,0,-999,0,0.00
2013-5-8,82,67,52,-100,-100,-100,0,0,100,0.00,40.00,0,-999,0,0.00
2013-5-9,64,60,57,-100,-100,-100,0,0,100,0.00,40.00,0,-999,0,0.00
2013-5-10,59,54,49,-100,-100,-100,0,0,100,0.00,40.00,0,-999,0,0.00
2013-5-11,61,51,42,-100,-100,-100,0,0,100,0.00,40.00,0,-999,0,0.00
2013-5-12,59,49,35,-100,-100,-100,0,0,100,0.00,40.00,0,-999,0,0.00
2013-5-13,70,56,38,-100,-100,-100,0,0,100,0.00,40.00,0,-999,0,0.00
2013-5-14,88,70,52,-100,-100,-100,0,0,100,0.00,40.00,0,-999,0,0.00
2013-5-15,84,75,66,-100,-100,-100,0,0,100,0.00,40.00,0,-999,0,0.00
2013-5-16,84,70,59,-100,-100,-100,0,0,100,0.00,40.00,0,-999,0,0.00
2013-5-17,79,70,57,-100,-100,-100,0,0,100,0.00,40.00,0,-999,0,0.00
2013-5-18,80,69,59,-100,-100,-100,0,0,100,0.00,40.00,0,-999,0,0.00
2013-5-19,88,74,61,-100,-100,-100,0,0,100,0.00,40.00,0,-999,0,0.00
2013-5-20,86,76,64,-100,-100,-100,0,0,100,0.00,40.00,0,-999,0,0.00
2013-5-21,77,70,61,-100,-100,-100,0,0,100,0.00,40.00,0,-999,0,0.00
2013-5-22,70,64,57,-100,-100,-100,0,0,100,0.00,40.00,0,-999,0,0.00
2013-5-23,57,54,47,-100,-100,-100,0,0,100,0.00,40.00,0,-999,0,0.00
2013-5-24,71,53,36,-100,-100,-100,0,0,100,0.00,40.00,0,-999,0,0.00
2013-5-25,55,50,44,-100,-100,-100,0,0,100,0.00,40.00,0,-999,0,0.00
2013-5-26,61,54,49,-100,-100,-100,0,0,100,0.00,40.00,0,-999,0,0.00
2013-5-27,68,60,55,-100,-100,-100,0,0,100,0.00,40.00,0,-999,0,0.00
2013-5-28,75,68,61,-100,-100,-100,0,0,100,0.00,40.00,0,-999,0,0.00
2013-5-29,82,72,61,-100,-100,-100,0,0,100,0.00,40.00,0,-999,0,0.00
2013-5-30,80,73,62,-100,-100,-100,0,0,100,0.00,40.00,0,-999,0,0.00
2013-5-31,73,67,61,-100,-100,-100,0,0,100,0.00,40.00,0,-999,0,0.00